sensor_id;sensor_type;location;lat;lon;timestamp;P1;durP1;ratioP1;P2;durP2;ratioP2
63688;SDS011;54895;40.928;14.480;2024-03-23T00:54:26;27.23;;;18.25;;
63688;SDS011;54895;40.928;14.480;2024-03-23T00:56:53;30.02;;;20.08;;
63688;SDS011;54895;40.928;14.480;2024-03-23T00:59:19;33.17;;;20.75;;
63688;SDS011;54895;40.928;14.480;2024-03-23T01:01:48;26.80;;;16.95;;
63688;SDS011;54895;40.928;14.480;2024-03-23T01:04:15;25.58;;;16.60;;
63688;SDS011;54895;40.928;14.480;2024-03-23T01:06:42;24.70;;;16.70;;
63688;SDS011;54895;40.928;14.480;2024-03-23T01:09:09;28.73;;;17.50;;
63688;SDS011;54895;40.928;14.480;2024-03-23T01:11:37;26.85;;;17.23;;
63688;SDS011;54895;40.928;14.480;2024-03-23T01:14:04;28.42;;;17.55;;
63688;SDS011;54895;40.928;14.480;2024-03-23T01:16:31;24.38;;;14.25;;
63688;SDS011;54895;40.928;14.480;2024-03-23T01:18:58;25.42;;;16.58;;
63688;SDS011;54895;40.928;14.480;2024-03-23T01:21:25;26.83;;;17.25;;
63688;SDS011;54895;40.928;14.480;2024-03-23T01:23:52;24.85;;;17.38;;
63688;SDS011;54895;40.928;14.480;2024-03-23T01:26:19;26.00;;;16.77;;
63688;SDS011;54895;40.928;14.480;2024-03-23T01:28:46;25.10;;;16.73;;
63688;SDS011;54895;40.928;14.480;2024-03-23T01:31:12;26.23;;;17.85;;
63688;SDS011;54895;40.928;14.480;2024-03-23T01:33:39;20.80;;;14.07;;
63688;SDS011;54895;40.928;14.480;2024-03-23T01:36:06;15.68;;;10.05;;
63688;SDS011;54895;40.928;14.480;2024-03-23T01:38:33;12.63;;;8.75;;
63688;SDS011;54895;40.928;14.480;2024-03-23T01:41:00;10.73;;;7.18;;
63688;SDS011;54895;40.928;14.480;2024-03-23T01:43:27;14.02;;;9.10;;
63688;SDS011;54895;40.928;14.480;2024-03-23T01:45:54;15.63;;;10.90;;
63688;SDS011;54895;40.928;14.480;2024-03-23T01:48:21;13.38;;;8.40;;
63688;SDS011;54895;40.928;14.480;2024-03-23T01:50:48;9.10;;;6.47;;
63688;SDS011;54895;40.928;14.480;2024-03-23T01:53:15;9.50;;;7.18;;
63688;SDS011;54895;40.928;14.480;2024-03-23T01:55:48;9.87;;;6.60;;
63688;SDS011;54895;40.928;14.480;2024-03-23T01:58:17;9.55;;;6.30;;
63688;SDS011;54895;40.928;14.480;2024-03-23T02:00:44;12.75;;;6.57;;
63688;SDS011;54895;40.928;14.480;2024-03-23T02:03:28;10.35;;;7.07;;
63688;SDS011;54895;40.928;14.480;2024-03-23T02:05:56;11.77;;;7.68;;
63688;SDS011;54895;40.928;14.480;2024-03-23T02:08:23;10.32;;;7.03;;
63688;SDS011;54895;40.928;14.480;2024-03-23T02:10:50;10.85;;;6.78;;
63688;SDS011;54895;40.928;14.480;2024-03-23T02:13:17;9.38;;;6.95;;
63688;SDS011;54895;40.928;14.480;2024-03-23T02:15:45;9.82;;;7.35;;
63688;SDS011;54895;40.928;14.480;2024-03-23T02:18:12;15.02;;;9.93;;
63688;SDS011;54895;40.928;14.480;2024-03-23T02:20:39;18.27;;;12.70;;
63688;SDS011;54895;40.928;14.480;2024-03-23T02:23:06;23.98;;;16.02;;
63688;SDS011;54895;40.928;14.480;2024-03-23T02:28:06;29.85;;;18.00;;
63688;SDS011;54895;40.928;14.480;2024-03-23T02:30:33;26.45;;;17.85;;
63688;SDS011;54895;40.928;14.480;2024-03-23T02:33:00;28.25;;;18.65;;
63688;SDS011;54895;40.928;14.480;2024-03-23T02:35:27;27.83;;;19.40;;
63688;SDS011;54895;40.928;14.480;2024-03-23T02:37:54;28.55;;;19.05;;
63688;SDS011;54895;40.928;14.480;2024-03-23T02:40:25;29.10;;;19.85;;
63688;SDS011;54895;40.928;14.480;2024-03-23T02:42:55;26.05;;;18.63;;
63688;SDS011;54895;40.928;14.480;2024-03-23T02:45:22;24.75;;;17.80;;
63688;SDS011;54895;40.928;14.480;2024-03-23T02:47:49;29.63;;;19.05;;
63688;SDS011;54895;40.928;14.480;2024-03-23T02:50:19;26.83;;;17.40;;
63688;SDS011;54895;40.928;14.480;2024-03-23T02:52:46;25.58;;;17.88;;
63688;SDS011;54895;40.928;14.480;2024-03-23T02:55:13;27.90;;;17.95;;
63688;SDS011;54895;40.928;14.480;2024-03-23T02:57:40;28.60;;;18.38;;
63688;SDS011;54895;40.928;14.480;2024-03-23T03:00:08;29.35;;;18.90;;
63688;SDS011;54895;40.928;14.480;2024-03-23T03:02:37;25.45;;;17.90;;
63688;SDS011;54895;40.928;14.480;2024-03-23T03:05:04;24.25;;;17.65;;
63688;SDS011;54895;40.928;14.480;2024-03-23T03:07:31;24.05;;;16.60;;
63688;SDS011;54895;40.928;14.480;2024-03-23T03:09:58;24.83;;;17.05;;
63688;SDS011;54895;40.928;14.480;2024-03-23T03:12:25;27.60;;;18.33;;
63688;SDS011;54895;40.928;14.480;2024-03-23T03:14:52;25.08;;;17.95;;
63688;SDS011;54895;40.928;14.480;2024-03-23T03:17:18;27.80;;;18.83;;
63688;SDS011;54895;40.928;14.480;2024-03-23T03:19:45;26.08;;;17.63;;
63688;SDS011;54895;40.928;14.480;2024-03-23T03:22:13;25.27;;;17.33;;
63688;SDS011;54895;40.928;14.480;2024-03-23T03:24:39;26.90;;;17.80;;
63688;SDS011;54895;40.928;14.480;2024-03-23T03:27:06;26.63;;;17.98;;
63688;SDS011;54895;40.928;14.480;2024-03-23T03:29:33;22.40;;;16.33;;
63688;SDS011;54895;40.928;14.480;2024-03-23T03:32:02;27.48;;;18.33;;
63688;SDS011;54895;40.928;14.480;2024-03-23T03:34:29;25.63;;;18.02;;
63688;SDS011;54895;40.928;14.480;2024-03-23T03:36:57;25.08;;;17.65;;
63688;SDS011;54895;40.928;14.480;2024-03-23T03:39:24;24.45;;;16.45;;
63688;SDS011;54895;40.928;14.480;2024-03-23T03:41:50;22.95;;;16.45;;
63688;SDS011;54895;40.928;14.480;2024-03-23T03:44:17;24.52;;;16.95;;
63688;SDS011;54895;40.928;14.480;2024-03-23T03:46:44;25.95;;;17.35;;
63688;SDS011;54895;40.928;14.480;2024-03-23T03:49:11;22.02;;;15.07;;
63688;SDS011;54895;40.928;14.480;2024-03-23T03:51:37;19.77;;;13.40;;
63688;SDS011;54895;40.928;14.480;2024-03-23T03:54:04;22.10;;;15.07;;
63688;SDS011;54895;40.928;14.480;2024-03-23T03:56:34;28.17;;;16.92;;
63688;SDS011;54895;40.928;14.480;2024-03-23T03:59:01;25.13;;;17.50;;
63688;SDS011;54895;40.928;14.480;2024-03-23T04:01:31;25.92;;;17.00;;
63688;SDS011;54895;40.928;14.480;2024-03-23T04:03:57;22.15;;;15.35;;
63688;SDS011;54895;40.928;14.480;2024-03-23T04:06:24;22.23;;;15.85;;
63688;SDS011;54895;40.928;14.480;2024-03-23T04:08:51;19.02;;;14.15;;
63688;SDS011;54895;40.928;14.480;2024-03-23T04:11:19;21.35;;;15.20;;
63688;SDS011;54895;40.928;14.480;2024-03-23T04:13:46;22.25;;;15.27;;
63688;SDS011;54895;40.928;14.480;2024-03-23T04:16:24;23.58;;;16.60;;
63688;SDS011;54895;40.928;14.480;2024-03-23T04:18:51;21.27;;;14.85;;
63688;SDS011;54895;40.928;14.480;2024-03-23T04:21:19;22.35;;;15.52;;
63688;SDS011;54895;40.928;14.480;2024-03-23T04:23:47;21.42;;;14.95;;
63688;SDS011;54895;40.928;14.480;2024-03-23T04:26:14;20.02;;;14.07;;
63688;SDS011;54895;40.928;14.480;2024-03-23T04:28:41;21.95;;;15.35;;
63688;SDS011;54895;40.928;14.480;2024-03-23T04:31:09;21.48;;;14.93;;
63688;SDS011;54895;40.928;14.480;2024-03-23T04:33:36;21.77;;;14.73;;
63688;SDS011;54895;40.928;14.480;2024-03-23T04:36:03;20.52;;;14.23;;
63688;SDS011;54895;40.928;14.480;2024-03-23T04:38:30;22.15;;;13.73;;
63688;SDS011;54895;40.928;14.480;2024-03-23T04:40:58;20.33;;;14.65;;
63688;SDS011;54895;40.928;14.480;2024-03-23T04:43:26;20.02;;;14.05;;
63688;SDS011;54895;40.928;14.480;2024-03-23T04:45:54;19.75;;;13.75;;
63688;SDS011;54895;40.928;14.480;2024-03-23T04:48:22;19.27;;;13.55;;
63688;SDS011;54895;40.928;14.480;2024-03-23T04:50:49;25.67;;;14.73;;
63688;SDS011;54895;40.928;14.480;2024-03-23T04:53:20;19.83;;;13.00;;
63688;SDS011;54895;40.928;14.480;2024-03-23T04:55:47;19.10;;;13.18;;
63688;SDS011;54895;40.928;14.480;2024-03-23T04:58:14;16.95;;;11.45;;
63688;SDS011;54895;40.928;14.480;2024-03-23T05:00:41;21.63;;;13.23;;
63688;SDS011;54895;40.928;14.480;2024-03-23T05:03:08;24.17;;;15.02;;
63688;SDS011;54895;40.928;14.480;2024-03-23T05:05:34;20.40;;;13.90;;
63688;SDS011;54895;40.928;14.480;2024-03-23T05:08:01;20.50;;;14.23;;
63688;SDS011;54895;40.928;14.480;2024-03-23T05:10:27;23.08;;;14.73;;
63688;SDS011;54895;40.928;14.480;2024-03-23T05:12:55;19.73;;;13.02;;
63688;SDS011;54895;40.928;14.480;2024-03-23T05:15:22;19.70;;;13.35;;
63688;SDS011;54895;40.928;14.480;2024-03-23T05:17:49;20.95;;;12.68;;
63688;SDS011;54895;40.928;14.480;2024-03-23T05:20:15;17.10;;;10.48;;
63688;SDS011;54895;40.928;14.480;2024-03-23T05:22:44;15.50;;;8.80;;
63688;SDS011;54895;40.928;14.480;2024-03-23T05:25:11;12.50;;;8.05;;
63688;SDS011;54895;40.928;14.480;2024-03-23T05:27:38;12.50;;;6.55;;
63688;SDS011;54895;40.928;14.480;2024-03-23T05:30:05;11.40;;;6.70;;
63688;SDS011;54895;40.928;14.480;2024-03-23T05:32:33;17.55;;;7.40;;
63688;SDS011;54895;40.928;14.480;2024-03-23T05:34:59;11.23;;;7.35;;
63688;SDS011;54895;40.928;14.480;2024-03-23T05:37:27;10.65;;;7.05;;
63688;SDS011;54895;40.928;14.480;2024-03-23T05:39:53;16.67;;;7.82;;
63688;SDS011;54895;40.928;14.480;2024-03-23T05:42:20;13.75;;;7.90;;
63688;SDS011;54895;40.928;14.480;2024-03-23T05:44:47;12.00;;;6.95;;
63688;SDS011;54895;40.928;14.480;2024-03-23T05:47:15;9.77;;;6.32;;
63688;SDS011;54895;40.928;14.480;2024-03-23T05:49:43;9.73;;;6.68;;
63688;SDS011;54895;40.928;14.480;2024-03-23T05:52:09;10.68;;;6.60;;
63688;SDS011;54895;40.928;14.480;2024-03-23T05:54:36;12.07;;;7.13;;
63688;SDS011;54895;40.928;14.480;2024-03-23T05:57:03;10.88;;;6.65;;
63688;SDS011;54895;40.928;14.480;2024-03-23T05:59:30;13.00;;;7.57;;
63688;SDS011;54895;40.928;14.480;2024-03-23T06:01:58;14.38;;;7.25;;
63688;SDS011;54895;40.928;14.480;2024-03-23T06:04:24;10.93;;;7.78;;
63688;SDS011;54895;40.928;14.480;2024-03-23T06:06:51;16.23;;;8.20;;
63688;SDS011;54895;40.928;14.480;2024-03-23T06:09:18;16.27;;;8.88;;
63688;SDS011;54895;40.928;14.480;2024-03-23T06:11:48;13.73;;;8.40;;
63688;SDS011;54895;40.928;14.480;2024-03-23T06:14:15;16.13;;;8.50;;
63688;SDS011;54895;40.928;14.480;2024-03-23T06:16:42;12.98;;;8.43;;
63688;SDS011;54895;40.928;14.480;2024-03-23T06:19:08;12.07;;;7.78;;
63688;SDS011;54895;40.928;14.480;2024-03-23T06:21:36;12.38;;;8.60;;
63688;SDS011;54895;40.928;14.480;2024-03-23T06:24:02;16.27;;;8.57;;
63688;SDS011;54895;40.928;14.480;2024-03-23T06:26:29;13.30;;;8.30;;
63688;SDS011;54895;40.928;14.480;2024-03-23T06:28:56;13.93;;;8.40;;
63688;SDS011;54895;40.928;14.480;2024-03-23T06:31:23;13.32;;;8.07;;
63688;SDS011;54895;40.928;14.480;2024-03-23T06:33:49;13.30;;;8.60;;
63688;SDS011;54895;40.928;14.480;2024-03-23T06:36:16;12.02;;;8.73;;
63688;SDS011;54895;40.928;14.480;2024-03-23T06:38:42;12.55;;;8.65;;
63688;SDS011;54895;40.928;14.480;2024-03-23T06:41:11;13.93;;;9.10;;
63688;SDS011;54895;40.928;14.480;2024-03-23T06:46:55;12.95;;;8.70;;
63688;SDS011;54895;40.928;14.480;2024-03-23T06:49:22;12.70;;;8.95;;
63688;SDS011;54895;40.928;14.480;2024-03-23T06:51:49;17.00;;;8.95;;
63688;SDS011;54895;40.928;14.480;2024-03-23T06:54:34;15.75;;;9.07;;
63688;SDS011;54895;40.928;14.480;2024-03-23T06:57:00;10.98;;;7.80;;
63688;SDS011;54895;40.928;14.480;2024-03-23T06:59:27;12.55;;;8.90;;
63688;SDS011;54895;40.928;14.480;2024-03-23T07:01:53;12.18;;;8.43;;
63688;SDS011;54895;40.928;14.480;2024-03-23T07:04:20;12.43;;;8.02;;
63688;SDS011;54895;40.928;14.480;2024-03-23T07:06:46;13.02;;;8.38;;
63688;SDS011;54895;40.928;14.480;2024-03-23T07:09:12;12.05;;;8.00;;
63688;SDS011;54895;40.928;14.480;2024-03-23T07:11:39;15.70;;;9.00;;
63688;SDS011;54895;40.928;14.480;2024-03-23T07:14:05;19.45;;;10.57;;
63688;SDS011;54895;40.928;14.480;2024-03-23T07:16:32;17.17;;;10.70;;
63688;SDS011;54895;40.928;14.480;2024-03-23T07:18:58;13.82;;;8.90;;
63688;SDS011;54895;40.928;14.480;2024-03-23T07:21:25;12.40;;;8.00;;
63688;SDS011;54895;40.928;14.480;2024-03-23T07:23:51;18.48;;;13.07;;
63688;SDS011;54895;40.928;14.480;2024-03-23T07:26:17;9.07;;;6.90;;
63688;SDS011;54895;40.928;14.480;2024-03-23T07:28:45;13.38;;;7.38;;
63688;SDS011;54895;40.928;14.480;2024-03-23T07:31:15;11.05;;;7.00;;
63688;SDS011;54895;40.928;14.480;2024-03-23T07:33:45;11.75;;;7.88;;
63688;SDS011;54895;40.928;14.480;2024-03-23T07:36:13;11.02;;;6.97;;
63688;SDS011;54895;40.928;14.480;2024-03-23T07:38:42;8.27;;;6.43;;
63688;SDS011;54895;40.928;14.480;2024-03-23T07:41:16;9.43;;;6.82;;
63688;SDS011;54895;40.928;14.480;2024-03-23T07:47:19;12.35;;;7.00;;
63688;SDS011;54895;40.928;14.480;2024-03-23T07:49:46;10.98;;;7.57;;
63688;SDS011;54895;40.928;14.480;2024-03-23T07:52:13;12.98;;;9.13;;
63688;SDS011;54895;40.928;14.480;2024-03-23T07:54:39;14.38;;;9.43;;
63688;SDS011;54895;40.928;14.480;2024-03-23T07:57:06;16.88;;;9.00;;
63688;SDS011;54895;40.928;14.480;2024-03-23T07:59:34;15.40;;;8.60;;
63688;SDS011;54895;40.928;14.480;2024-03-23T08:02:01;15.55;;;8.93;;
63688;SDS011;54895;40.928;14.480;2024-03-23T08:04:28;15.05;;;9.68;;
63688;SDS011;54895;40.928;14.480;2024-03-23T08:06:55;17.98;;;8.77;;
63688;SDS011;54895;40.928;14.480;2024-03-23T08:09:22;17.00;;;9.80;;
63688;SDS011;54895;40.928;14.480;2024-03-23T08:11:49;17.23;;;9.80;;
63688;SDS011;54895;40.928;14.480;2024-03-23T08:14:16;14.90;;;9.40;;
63688;SDS011;54895;40.928;14.480;2024-03-23T08:16:43;16.80;;;9.00;;
63688;SDS011;54895;40.928;14.480;2024-03-23T08:19:15;15.75;;;9.07;;
63688;SDS011;54895;40.928;14.480;2024-03-23T08:21:42;14.13;;;9.23;;
63688;SDS011;54895;40.928;14.480;2024-03-23T08:24:09;13.45;;;7.97;;
63688;SDS011;54895;40.928;14.480;2024-03-23T08:26:36;11.52;;;7.95;;
63688;SDS011;54895;40.928;14.480;2024-03-23T08:29:03;12.38;;;8.40;;
63688;SDS011;54895;40.928;14.480;2024-03-23T08:31:31;15.73;;;8.40;;
63688;SDS011;54895;40.928;14.480;2024-03-23T08:33:58;13.13;;;8.75;;
63688;SDS011;54895;40.928;14.480;2024-03-23T08:36:27;12.02;;;8.57;;
63688;SDS011;54895;40.928;14.480;2024-03-23T08:38:54;12.30;;;8.35;;
63688;SDS011;54895;40.928;14.480;2024-03-23T08:41:21;12.73;;;8.63;;
63688;SDS011;54895;40.928;14.480;2024-03-23T08:43:48;12.23;;;8.38;;
63688;SDS011;54895;40.928;14.480;2024-03-23T08:46:16;13.70;;;8.32;;
63688;SDS011;54895;40.928;14.480;2024-03-23T08:48:44;12.73;;;8.68;;
63688;SDS011;54895;40.928;14.480;2024-03-23T08:51:13;12.65;;;8.20;;
63688;SDS011;54895;40.928;14.480;2024-03-23T08:53:40;13.93;;;9.20;;
63688;SDS011;54895;40.928;14.480;2024-03-23T08:56:08;14.80;;;9.57;;
63688;SDS011;54895;40.928;14.480;2024-03-23T08:58:36;14.23;;;9.57;;
63688;SDS011;54895;40.928;14.480;2024-03-23T09:01:11;16.65;;;9.63;;
63688;SDS011;54895;40.928;14.480;2024-03-23T09:03:42;13.05;;;9.80;;
63688;SDS011;54895;40.928;14.480;2024-03-23T09:06:10;14.10;;;9.88;;
63688;SDS011;54895;40.928;14.480;2024-03-23T09:08:39;14.00;;;9.60;;
63688;SDS011;54895;40.928;14.480;2024-03-23T09:11:07;15.68;;;10.07;;
63688;SDS011;54895;40.928;14.480;2024-03-23T09:13:35;13.57;;;9.57;;
63688;SDS011;54895;40.928;14.480;2024-03-23T09:16:03;14.68;;;9.65;;
63688;SDS011;54895;40.928;14.480;2024-03-23T09:18:31;12.65;;;9.73;;
63688;SDS011;54895;40.928;14.480;2024-03-23T09:20:59;15.90;;;10.27;;
63688;SDS011;54895;40.928;14.480;2024-03-23T09:23:26;15.38;;;9.88;;
63688;SDS011;54895;40.928;14.480;2024-03-23T09:25:52;12.75;;;10.07;;
63688;SDS011;54895;40.928;14.480;2024-03-23T09:28:19;19.42;;;10.75;;
63688;SDS011;54895;40.928;14.480;2024-03-23T09:30:46;15.13;;;10.23;;
63688;SDS011;54895;40.928;14.480;2024-03-23T09:33:13;15.85;;;10.13;;
63688;SDS011;54895;40.928;14.480;2024-03-23T09:35:40;12.40;;;9.80;;
63688;SDS011;54895;40.928;14.480;2024-03-23T09:38:08;14.88;;;9.80;;
63688;SDS011;54895;40.928;14.480;2024-03-23T09:40:42;14.82;;;9.57;;
63688;SDS011;54895;40.928;14.480;2024-03-23T09:43:09;13.13;;;8.93;;
63688;SDS011;54895;40.928;14.480;2024-03-23T09:45:38;13.65;;;9.23;;
63688;SDS011;54895;40.928;14.480;2024-03-23T09:48:06;13.13;;;9.23;;
63688;SDS011;54895;40.928;14.480;2024-03-23T09:50:40;12.63;;;9.45;;
63688;SDS011;54895;40.928;14.480;2024-03-23T09:53:12;9.20;;;6.07;;
63688;SDS011;54895;40.928;14.480;2024-03-23T09:55:40;6.57;;;5.10;;
63688;SDS011;54895;40.928;14.480;2024-03-23T09:58:08;9.57;;;5.30;;
63688;SDS011;54895;40.928;14.480;2024-03-23T10:00:39;8.10;;;4.70;;
63688;SDS011;54895;40.928;14.480;2024-03-23T10:03:05;6.20;;;4.13;;
63688;SDS011;54895;40.928;14.480;2024-03-23T10:05:33;5.30;;;3.92;;
63688;SDS011;54895;40.928;14.480;2024-03-23T10:10:41;5.22;;;3.60;;
63688;SDS011;54895;40.928;14.480;2024-03-23T10:13:11;5.40;;;3.60;;
63688;SDS011;54895;40.928;14.480;2024-03-23T10:15:59;5.03;;;4.18;;
63688;SDS011;54895;40.928;14.480;2024-03-23T10:18:26;7.35;;;4.63;;
63688;SDS011;54895;40.928;14.480;2024-03-23T10:23:41;8.55;;;4.95;;
63688;SDS011;54895;40.928;14.480;2024-03-23T10:26:12;7.65;;;5.20;;
63688;SDS011;54895;40.928;14.480;2024-03-23T10:31:19;7.55;;;3.95;;
63688;SDS011;54895;40.928;14.480;2024-03-23T10:33:47;7.10;;;4.25;;
63688;SDS011;54895;40.928;14.480;2024-03-23T10:36:14;7.53;;;4.93;;
63688;SDS011;54895;40.928;14.480;2024-03-23T10:38:42;6.45;;;4.38;;
63688;SDS011;54895;40.928;14.480;2024-03-23T10:41:11;9.10;;;5.72;;
63688;SDS011;54895;40.928;14.480;2024-03-23T10:43:38;9.88;;;4.80;;
63688;SDS011;54895;40.928;14.480;2024-03-23T10:46:05;7.15;;;4.22;;
63688;SDS011;54895;40.928;14.480;2024-03-23T10:48:32;6.57;;;4.47;;
63688;SDS011;54895;40.928;14.480;2024-03-23T10:50:59;7.57;;;4.63;;
63688;SDS011;54895;40.928;14.480;2024-03-23T10:53:27;5.95;;;3.90;;
63688;SDS011;54895;40.928;14.480;2024-03-23T10:55:55;6.60;;;4.55;;
63688;SDS011;54895;40.928;14.480;2024-03-23T10:58:33;8.45;;;4.63;;
63688;SDS011;54895;40.928;14.480;2024-03-23T11:01:04;4.38;;;3.50;;
63688;SDS011;54895;40.928;14.480;2024-03-23T11:03:38;5.47;;;3.53;;
63688;SDS011;54895;40.928;14.480;2024-03-23T11:06:06;5.63;;;3.63;;
63688;SDS011;54895;40.928;14.480;2024-03-23T11:08:38;5.93;;;3.90;;
63688;SDS011;54895;40.928;14.480;2024-03-23T11:11:18;6.40;;;3.78;;
63688;SDS011;54895;40.928;14.480;2024-03-23T11:13:49;6.63;;;4.43;;
63688;SDS011;54895;40.928;14.480;2024-03-23T11:16:23;5.05;;;3.35;;
63688;SDS011;54895;40.928;14.480;2024-03-23T11:19:33;13.40;;;3.95;;
63688;SDS011;54895;40.928;14.480;2024-03-23T11:22:01;6.75;;;3.63;;
63688;SDS011;54895;40.928;14.480;2024-03-23T11:24:27;4.82;;;2.92;;
63688;SDS011;54895;40.928;14.480;2024-03-23T11:26:54;6.80;;;3.30;;
63688;SDS011;54895;40.928;14.480;2024-03-23T11:29:20;7.85;;;4.30;;
63688;SDS011;54895;40.928;14.480;2024-03-23T11:31:48;5.03;;;3.50;;
63688;SDS011;54895;40.928;14.480;2024-03-23T11:34:15;5.55;;;3.28;;
63688;SDS011;54895;40.928;14.480;2024-03-23T11:36:46;7.25;;;3.45;;
63688;SDS011;54895;40.928;14.480;2024-03-23T11:39:17;5.78;;;3.05;;
63688;SDS011;54895;40.928;14.480;2024-03-23T11:41:52;5.95;;;2.75;;
63688;SDS011;54895;40.928;14.480;2024-03-23T11:44:20;4.65;;;2.70;;
63688;SDS011;54895;40.928;14.480;2024-03-23T11:46:50;6.35;;;3.17;;
63688;SDS011;54895;40.928;14.480;2024-03-23T11:49:24;4.88;;;3.40;;
63688;SDS011;54895;40.928;14.480;2024-03-23T11:51:52;4.28;;;2.88;;
63688;SDS011;54895;40.928;14.480;2024-03-23T11:54:23;5.97;;;3.20;;
63688;SDS011;54895;40.928;14.480;2024-03-23T11:57:00;5.53;;;3.08;;
63688;SDS011;54895;40.928;14.480;2024-03-23T11:59:30;5.35;;;3.17;;
63688;SDS011;54895;40.928;14.480;2024-03-23T12:02:00;5.10;;;3.15;;
63688;SDS011;54895;40.928;14.480;2024-03-23T12:04:31;4.13;;;3.10;;
63688;SDS011;54895;40.928;14.480;2024-03-23T12:07:10;4.53;;;2.95;;
63688;SDS011;54895;40.928;14.480;2024-03-23T12:09:41;5.35;;;3.10;;
63688;SDS011;54895;40.928;14.480;2024-03-23T12:12:08;4.30;;;3.03;;
63688;SDS011;54895;40.928;14.480;2024-03-23T12:14:36;5.00;;;3.28;;
63688;SDS011;54895;40.928;14.480;2024-03-23T12:17:12;7.03;;;2.97;;
63688;SDS011;54895;40.928;14.480;2024-03-23T12:19:40;6.47;;;3.15;;
63688;SDS011;54895;40.928;14.480;2024-03-23T12:22:08;4.65;;;2.95;;
63688;SDS011;54895;40.928;14.480;2024-03-23T12:24:34;4.65;;;2.88;;
63688;SDS011;54895;40.928;14.480;2024-03-23T12:27:04;5.07;;;3.40;;
63688;SDS011;54895;40.928;14.480;2024-03-23T12:29:31;4.05;;;3.13;;
63688;SDS011;54895;40.928;14.480;2024-03-23T12:32:01;7.03;;;2.55;;
63688;SDS011;54895;40.928;14.480;2024-03-23T12:34:28;4.35;;;2.78;;
63688;SDS011;54895;40.928;14.480;2024-03-23T12:36:59;5.28;;;2.80;;
63688;SDS011;54895;40.928;14.480;2024-03-23T12:39:25;6.55;;;3.55;;
63688;SDS011;54895;40.928;14.480;2024-03-23T12:41:51;5.18;;;2.85;;
63688;SDS011;54895;40.928;14.480;2024-03-23T12:44:19;4.85;;;3.17;;
63688;SDS011;54895;40.928;14.480;2024-03-23T12:46:46;3.53;;;2.72;;
63688;SDS011;54895;40.928;14.480;2024-03-23T12:49:13;6.20;;;3.00;;
63688;SDS011;54895;40.928;14.480;2024-03-23T12:51:42;4.22;;;2.90;;
63688;SDS011;54895;40.928;14.480;2024-03-23T12:54:19;4.05;;;3.33;;
63688;SDS011;54895;40.928;14.480;2024-03-23T12:56:45;5.20;;;3.80;;
63688;SDS011;54895;40.928;14.480;2024-03-23T12:59:12;4.35;;;3.22;;
63688;SDS011;54895;40.928;14.480;2024-03-23T13:01:39;6.18;;;2.85;;
63688;SDS011;54895;40.928;14.480;2024-03-23T13:04:06;4.13;;;3.20;;
63688;SDS011;54895;40.928;14.480;2024-03-23T13:06:35;5.13;;;3.40;;
63688;SDS011;54895;40.928;14.480;2024-03-23T13:09:02;4.55;;;3.00;;
63688;SDS011;54895;40.928;14.480;2024-03-23T13:11:30;13.68;;;4.07;;
63688;SDS011;54895;40.928;14.480;2024-03-23T13:13:57;4.72;;;3.00;;
63688;SDS011;54895;40.928;14.480;2024-03-23T13:16:26;5.15;;;3.75;;
63688;SDS011;54895;40.928;14.480;2024-03-23T13:18:52;6.15;;;3.60;;
63688;SDS011;54895;40.928;14.480;2024-03-23T13:21:19;6.78;;;3.33;;
63688;SDS011;54895;40.928;14.480;2024-03-23T13:23:48;6.18;;;3.53;;
63688;SDS011;54895;40.928;14.480;2024-03-23T13:26:15;10.43;;;4.30;;
63688;SDS011;54895;40.928;14.480;2024-03-23T13:28:42;4.70;;;3.28;;
63688;SDS011;54895;40.928;14.480;2024-03-23T13:31:08;6.28;;;3.67;;
63688;SDS011;54895;40.928;14.480;2024-03-23T13:33:34;5.50;;;3.08;;
63688;SDS011;54895;40.928;14.480;2024-03-23T13:36:00;6.20;;;3.38;;
63688;SDS011;54895;40.928;14.480;2024-03-23T13:38:28;5.15;;;3.97;;
63688;SDS011;54895;40.928;14.480;2024-03-23T13:43:20;5.45;;;3.40;;
63688;SDS011;54895;40.928;14.480;2024-03-23T13:45:51;7.30;;;4.18;;
63688;SDS011;54895;40.928;14.480;2024-03-23T13:48:23;5.82;;;3.17;;
63688;SDS011;54895;40.928;14.480;2024-03-23T13:50:56;5.78;;;2.75;;
63688;SDS011;54895;40.928;14.480;2024-03-23T13:53:27;5.78;;;2.78;;
63688;SDS011;54895;40.928;14.480;2024-03-23T13:55:57;5.78;;;3.40;;
63688;SDS011;54895;40.928;14.480;2024-03-23T13:58:23;5.10;;;4.00;;
63688;SDS011;54895;40.928;14.480;2024-03-23T14:00:52;6.78;;;4.00;;
63688;SDS011;54895;40.928;14.480;2024-03-23T14:03:19;8.15;;;4.22;;
63688;SDS011;54895;40.928;14.480;2024-03-23T14:05:45;5.85;;;3.45;;
63688;SDS011;54895;40.928;14.480;2024-03-23T14:08:15;11.55;;;4.43;;
63688;SDS011;54895;40.928;14.480;2024-03-23T14:10:41;7.03;;;3.80;;
63688;SDS011;54895;40.928;14.480;2024-03-23T14:13:08;9.05;;;4.13;;
63688;SDS011;54895;40.928;14.480;2024-03-23T14:15:35;6.35;;;3.78;;
63688;SDS011;54895;40.928;14.480;2024-03-23T14:18:02;6.90;;;3.88;;
63688;SDS011;54895;40.928;14.480;2024-03-23T14:20:29;5.30;;;3.55;;
63688;SDS011;54895;40.928;14.480;2024-03-23T14:22:56;6.20;;;3.95;;
63688;SDS011;54895;40.928;14.480;2024-03-23T14:25:22;7.07;;;4.35;;
63688;SDS011;54895;40.928;14.480;2024-03-23T14:27:53;8.77;;;4.30;;
63688;SDS011;54895;40.928;14.480;2024-03-23T14:30:19;6.65;;;3.50;;
63688;SDS011;54895;40.928;14.480;2024-03-23T14:32:45;8.25;;;3.58;;
63688;SDS011;54895;40.928;14.480;2024-03-23T14:35:12;5.60;;;3.50;;
63688;SDS011;54895;40.928;14.480;2024-03-23T14:37:38;8.55;;;4.70;;
63688;SDS011;54895;40.928;14.480;2024-03-23T14:40:10;5.95;;;3.30;;
63688;SDS011;54895;40.928;14.480;2024-03-23T14:42:39;5.70;;;3.03;;
63688;SDS011;54895;40.928;14.480;2024-03-23T14:45:05;4.78;;;3.20;;
63688;SDS011;54895;40.928;14.480;2024-03-23T14:47:33;4.45;;;2.75;;
63688;SDS011;54895;40.928;14.480;2024-03-23T14:50:00;5.18;;;2.55;;
63688;SDS011;54895;40.928;14.480;2024-03-23T14:52:26;3.60;;;2.28;;
63688;SDS011;54895;40.928;14.480;2024-03-23T14:54:54;3.88;;;2.10;;
63688;SDS011;54895;40.928;14.480;2024-03-23T14:57:22;4.55;;;1.90;;
63688;SDS011;54895;40.928;14.480;2024-03-23T14:59:49;6.22;;;1.95;;
63688;SDS011;54895;40.928;14.480;2024-03-23T15:02:15;3.60;;;1.67;;
63688;SDS011;54895;40.928;14.480;2024-03-23T15:04:41;4.43;;;1.80;;
63688;SDS011;54895;40.928;14.480;2024-03-23T15:07:07;4.95;;;1.80;;
63688;SDS011;54895;40.928;14.480;2024-03-23T15:09:34;4.22;;;2.22;;
63688;SDS011;54895;40.928;14.480;2024-03-23T15:12:03;3.83;;;1.55;;
63688;SDS011;54895;40.928;14.480;2024-03-23T15:14:29;6.13;;;1.80;;
63688;SDS011;54895;40.928;14.480;2024-03-23T15:16:55;4.68;;;1.33;;
63688;SDS011;54895;40.928;14.480;2024-03-23T15:19:22;4.47;;;1.60;;
63688;SDS011;54895;40.928;14.480;2024-03-23T15:21:48;1.90;;;1.52;;
63688;SDS011;54895;40.928;14.480;2024-03-23T15:24:14;1.98;;;1.33;;
63688;SDS011;54895;40.928;14.480;2024-03-23T15:26:40;4.95;;;1.88;;
63688;SDS011;54895;40.928;14.480;2024-03-23T15:29:08;3.38;;;1.63;;
63688;SDS011;54895;40.928;14.480;2024-03-23T15:31:42;2.47;;;1.77;;
63688;SDS011;54895;40.928;14.480;2024-03-23T15:34:09;3.00;;;1.90;;
63688;SDS011;54895;40.928;14.480;2024-03-23T15:36:38;3.28;;;1.55;;
63688;SDS011;54895;40.928;14.480;2024-03-23T15:39:07;8.00;;;1.80;;
63688;SDS011;54895;40.928;14.480;2024-03-23T15:41:34;4.30;;;1.80;;